createdAt,value
2023-04-15T00:00:45.993Z,984.07
2023-04-15T00:01:46.055Z,984.11
2023-04-15T00:02:46.137Z,984.21
2023-04-15T00:03:46.214Z,984.14
2023-04-15T00:04:46.112Z,984.17
2023-04-15T00:05:46.000Z,984.14
2023-04-15T00:06:45.990Z,984.09
2023-04-15T00:07:46.007Z,984.07
2023-04-15T00:08:46.028Z,984.04
2023-04-15T00:09:46.021Z,983.98
2023-04-15T00:10:46.003Z,983.93
2023-04-15T00:11:46.002Z,983.95
2023-04-15T00:12:46.005Z,984.03
2023-04-15T00:13:46.042Z,983.98
2023-04-15T00:14:46.011Z,984.03
2023-04-15T00:15:46.011Z,984.03
2023-04-15T00:16:46.049Z,983.99
2023-04-15T00:17:46.036Z,983.99
2023-04-15T00:18:46.011Z,983.97
2023-04-15T00:19:46.037Z,983.97
2023-04-15T00:20:46.002Z,983.99
2023-04-15T00:21:46.001Z,983.99
2023-04-15T00:22:46.003Z,984.07
2023-04-15T00:23:46.011Z,984.04
2023-04-15T00:24:46.023Z,984.03
2023-04-15T00:25:46.014Z,984.00
2023-04-15T00:26:46.007Z,983.99
2023-04-15T00:27:46.077Z,984.00
2023-04-15T00:28:46.014Z,983.98
2023-04-15T00:29:46.049Z,983.88
2023-04-15T00:30:46.097Z,983.91
2023-04-15T00:31:46.059Z,983.87
2023-04-15T00:32:46.091Z,983.92
2023-04-15T00:33:46.021Z,983.83
2023-04-15T00:34:46.019Z,983.87
2023-04-15T00:35:46.052Z,983.89
2023-04-15T00:36:46.006Z,983.88
2023-04-15T00:37:46.484Z,983.89
2023-04-15T00:38:46.060Z,983.91
2023-04-15T00:39:46.027Z,983.84
2023-04-15T00:40:46.044Z,983.85
2023-04-15T00:41:46.027Z,983.85
2023-04-15T00:42:46.032Z,983.87
2023-04-15T00:43:46.005Z,983.89
2023-04-15T00:44:46.024Z,983.85
2023-04-15T00:45:46.056Z,983.87
2023-04-15T00:46:46.024Z,983.84
2023-04-15T00:47:46.036Z,983.91
2023-04-15T00:48:46.030Z,983.94
2023-04-15T00:49:46.048Z,983.94
2023-04-15T00:50:46.042Z,983.84
2023-04-15T00:51:46.046Z,983.88
2023-04-15T00:52:46.032Z,983.90
2023-04-15T00:53:46.021Z,983.93
2023-04-15T00:54:46.055Z,983.81
2023-04-15T00:55:46.053Z,983.89
2023-04-15T00:56:46.064Z,983.86
2023-04-15T00:57:46.058Z,983.87
2023-04-15T00:58:46.034Z,983.78
2023-04-15T00:59:46.052Z,983.81
2023-04-15T01:00:46.060Z,983.84
2023-04-15T01:01:46.229Z,983.81
2023-04-15T01:02:46.221Z,983.86
2023-04-15T01:03:46.283Z,983.88
2023-04-15T01:04:46.036Z,983.84
2023-04-15T01:05:46.038Z,983.90
2023-04-15T01:06:46.096Z,983.92
2023-04-15T01:07:46.073Z,983.89
2023-04-15T01:08:46.049Z,983.86
2023-04-15T01:09:46.056Z,983.86
2023-04-15T01:10:46.057Z,983.97
2023-04-15T01:11:46.064Z,983.91
2023-04-15T01:12:46.068Z,983.95
2023-04-15T01:13:46.052Z,983.95
2023-04-15T01:14:46.072Z,983.95
2023-04-15T01:15:46.077Z,983.88
2023-04-15T01:16:46.062Z,983.90
2023-04-15T01:17:46.109Z,983.94
2023-04-15T01:18:46.060Z,983.93
2023-04-15T01:19:46.060Z,983.88
2023-04-15T01:20:46.088Z,983.94
2023-04-15T01:21:46.079Z,983.97
2023-04-15T01:22:46.077Z,983.94
2023-04-15T01:23:46.071Z,983.91
2023-04-15T01:24:46.052Z,983.90
2023-04-15T01:25:46.068Z,983.88
2023-04-15T01:26:46.067Z,983.89
2023-04-15T01:27:46.074Z,983.89
2023-04-15T01:28:46.083Z,983.86
2023-04-15T01:29:46.059Z,983.91
2023-04-15T01:30:46.069Z,983.87
2023-04-15T01:31:46.066Z,983.96
2023-04-15T01:32:46.120Z,983.95
2023-04-15T01:33:46.432Z,983.97
2023-04-15T01:34:46.075Z,983.90
2023-04-15T01:35:46.068Z,983.92
2023-04-15T01:36:46.070Z,983.92
2023-04-15T01:37:46.097Z,983.94
2023-04-15T01:38:46.253Z,983.83
2023-04-15T01:39:46.086Z,983.97
2023-04-15T01:40:46.113Z,983.97
2023-04-15T01:41:46.079Z,983.98
2023-04-15T01:42:46.082Z,984.03
2023-04-15T01:43:46.087Z,983.98
2023-04-15T01:44:46.156Z,984.01
2023-04-15T01:45:46.128Z,984.03
2023-04-15T01:46:46.149Z,983.99
2023-04-15T01:47:46.210Z,984.00
2023-04-15T01:48:46.177Z,984.02
2023-04-15T01:49:46.159Z,984.00
2023-04-15T01:50:46.180Z,984.00
2023-04-15T01:51:46.228Z,984.03
2023-04-15T01:52:46.197Z,984.06
2023-04-15T01:53:46.264Z,983.95
2023-04-15T01:54:46.221Z,983.97
2023-04-15T01:55:46.257Z,983.95
2023-04-15T01:56:46.273Z,983.94
2023-04-15T01:57:46.268Z,983.95
2023-04-15T01:58:46.276Z,983.88
2023-04-15T01:59:46.320Z,984.00
2023-04-15T02:00:46.329Z,983.91
2023-04-15T02:01:46.382Z,983.90
2023-04-15T02:02:46.382Z,984.01
2023-04-15T02:03:46.442Z,983.95
2023-04-15T02:04:46.356Z,983.96
2023-04-15T02:05:46.381Z,983.91
2023-04-15T02:06:46.396Z,983.91
2023-04-15T02:07:46.395Z,983.87
2023-04-15T02:08:46.404Z,983.91
2023-04-15T02:09:46.406Z,983.97
2023-04-15T02:10:46.435Z,983.95
2023-04-15T02:11:46.526Z,983.95
2023-04-15T02:12:46.698Z,983.93
2023-04-15T02:13:46.513Z,984.06
2023-04-15T02:14:46.527Z,984.03
2023-04-15T02:15:46.519Z,983.99
2023-04-15T02:16:46.567Z,984.13
2023-04-15T02:17:46.597Z,983.97
2023-04-15T02:19:24.185Z,984.08
2023-04-15T02:20:24.172Z,984.03
2023-04-15T02:21:24.210Z,984.03
2023-04-15T02:22:24.199Z,984.02
2023-04-15T02:23:24.170Z,984.02
2023-04-15T02:24:24.220Z,984.05
2023-04-15T02:25:24.173Z,984.02
2023-04-15T02:26:24.155Z,983.98
2023-04-15T02:27:24.220Z,984.06
2023-04-15T02:28:24.193Z,983.97
2023-04-15T02:29:24.195Z,983.98
2023-04-15T02:30:24.215Z,984.04
2023-04-15T02:31:24.198Z,984.04
2023-04-15T02:32:24.272Z,984.00
2023-04-15T02:33:24.202Z,983.99
2023-04-15T02:34:24.185Z,983.93
2023-04-15T02:35:24.212Z,983.99
2023-04-15T02:36:24.218Z,984.02
2023-04-15T02:37:24.205Z,983.99
2023-04-15T02:38:24.188Z,983.99
2023-04-15T02:39:24.215Z,984.03
2023-04-15T02:40:24.184Z,984.07
2023-04-15T02:41:24.204Z,984.05
2023-04-15T02:42:24.224Z,984.04
2023-04-15T02:43:24.218Z,984.03
2023-04-15T02:44:24.209Z,984.06
2023-04-15T02:45:24.188Z,984.09
2023-04-15T02:46:24.357Z,984.20
2023-04-15T02:47:24.248Z,984.15
2023-04-15T02:48:24.204Z,984.12
2023-04-15T02:49:24.231Z,984.09
2023-04-15T02:50:24.209Z,984.07
2023-04-15T02:51:24.203Z,984.14
2023-04-15T02:52:24.212Z,984.11
2023-04-15T02:53:24.226Z,984.10
2023-04-15T02:54:24.210Z,984.10
2023-04-15T02:55:24.210Z,984.07
2023-04-15T02:56:24.354Z,984.14
2023-04-15T02:57:24.351Z,984.11
2023-04-15T02:58:24.379Z,984.07
2023-04-15T02:59:24.414Z,984.14
2023-04-15T03:00:24.397Z,984.16
2023-04-15T03:01:24.444Z,984.09
2023-04-15T03:02:24.668Z,984.17
2023-04-15T03:03:24.457Z,984.13
2023-04-15T03:04:24.459Z,984.17
2023-04-15T03:05:24.489Z,984.14
2023-04-15T03:06:24.474Z,984.18
2023-04-15T03:07:24.511Z,984.16
2023-04-15T03:08:24.510Z,984.20
2023-04-15T03:09:24.531Z,984.18
2023-04-15T03:10:24.506Z,984.24
2023-04-15T03:11:24.541Z,984.19
2023-04-15T03:12:24.560Z,984.20
2023-04-15T03:13:24.546Z,984.13
2023-04-15T03:14:24.540Z,984.16
2023-04-15T03:15:24.580Z,984.15
2023-04-15T03:16:24.555Z,984.17
2023-04-15T03:17:24.605Z,984.14
2023-04-15T03:18:24.615Z,984.16
2023-04-15T03:19:24.669Z,984.10
2023-04-15T03:20:24.667Z,984.13
2023-04-15T03:21:24.645Z,984.13
2023-04-15T03:22:24.645Z,984.12
2023-04-15T03:23:24.662Z,984.12
2023-04-15T03:24:24.692Z,984.16
2023-04-15T03:25:24.695Z,984.22
2023-04-15T03:26:24.731Z,984.12
2023-04-15T03:27:24.710Z,984.12
2023-04-15T03:28:24.733Z,984.17
2023-04-15T03:29:24.801Z,984.14
2023-04-15T03:30:24.758Z,984.15
2023-04-15T03:31:24.888Z,984.06
2023-04-15T03:32:24.870Z,984.13
2023-04-15T03:33:24.866Z,984.14
2023-04-15T03:34:24.861Z,984.09
2023-04-15T03:35:24.892Z,984.16
2023-04-15T03:36:24.933Z,984.08
2023-04-15T03:37:24.911Z,984.11
2023-04-15T03:38:24.934Z,984.13
2023-04-15T03:39:24.929Z,984.16
2023-04-15T03:40:24.911Z,984.16
2023-04-15T03:41:24.960Z,984.21
2023-04-15T03:42:24.953Z,984.17
2023-04-15T03:43:24.942Z,984.14
2023-04-15T03:44:24.926Z,984.12
2023-04-15T03:45:24.924Z,984.18
2023-04-15T03:46:24.937Z,984.17
2023-04-15T03:47:25.011Z,984.20
2023-04-15T03:48:24.970Z,984.17
2023-04-15T03:49:24.960Z,984.06
2023-04-15T03:50:25.000Z,984.15
2023-04-15T03:51:24.996Z,984.18
2023-04-15T03:52:25.040Z,984.14
2023-04-15T03:53:25.028Z,984.09
2023-04-15T03:54:25.047Z,984.14
2023-04-15T03:55:25.050Z,984.08
2023-04-15T03:56:25.053Z,984.10
2023-04-15T03:57:25.115Z,984.04
2023-04-15T03:58:25.104Z,984.10
2023-04-15T03:59:25.088Z,984.12
2023-04-15T04:00:25.121Z,984.08
2023-04-15T04:01:25.162Z,984.12
2023-04-15T04:02:25.284Z,984.10
2023-04-15T04:03:25.390Z,984.15
2023-04-15T04:04:25.283Z,984.12
2023-04-15T04:05:25.185Z,984.10
2023-04-15T04:06:25.193Z,984.08
2023-04-15T04:07:25.212Z,984.11
2023-04-15T04:08:25.207Z,984.09
2023-04-15T04:09:25.223Z,984.10
2023-04-15T04:10:25.245Z,984.07
2023-04-15T04:11:25.272Z,984.14
2023-04-15T04:12:25.255Z,984.12
2023-04-15T04:13:25.263Z,984.17
2023-04-15T04:14:25.264Z,984.07
2023-04-15T04:15:25.390Z,984.14
2023-04-15T04:16:25.440Z,984.15
2023-04-15T04:17:25.455Z,984.13
2023-04-15T04:18:25.313Z,984.16
2023-04-15T04:19:25.336Z,984.13
2023-04-15T04:20:25.341Z,984.10
2023-04-15T04:21:25.356Z,984.16
2023-04-15T04:22:25.387Z,984.11
2023-04-15T04:23:25.435Z,984.16
2023-04-15T04:24:25.394Z,984.09
2023-04-15T04:25:25.406Z,984.14
2023-04-15T04:26:25.425Z,984.06
2023-04-15T04:27:25.439Z,984.07
2023-04-15T04:28:25.436Z,984.11
2023-04-15T04:29:25.436Z,984.04
2023-04-15T04:30:25.469Z,984.10
2023-04-15T04:31:25.502Z,984.11
2023-04-15T04:32:25.538Z,984.10
2023-04-15T04:33:25.499Z,984.15
2023-04-15T04:34:25.497Z,984.14
2023-04-15T04:35:25.532Z,984.11
2023-04-15T04:36:25.534Z,984.09
2023-04-15T04:37:25.549Z,984.12
2023-04-15T04:38:25.558Z,984.17
2023-04-15T04:39:25.573Z,984.16
2023-04-15T04:40:25.576Z,984.11
2023-04-15T04:41:25.586Z,984.17
2023-04-15T04:42:25.582Z,984.16
2023-04-15T04:43:25.648Z,984.11
2023-04-15T04:44:25.639Z,984.17
2023-04-15T04:45:25.620Z,984.17
2023-04-15T04:46:25.634Z,984.14
2023-04-15T04:47:25.704Z,984.14
2023-04-15T04:48:25.669Z,984.13
2023-04-15T04:49:25.709Z,984.14
2023-04-15T04:50:25.698Z,984.23
2023-04-15T04:51:25.712Z,984.21
2023-04-15T04:52:25.729Z,984.15
2023-04-15T04:53:25.748Z,984.21
2023-04-15T04:54:25.752Z,984.11
2023-04-15T04:55:25.751Z,984.10
2023-04-15T04:56:25.764Z,984.18
2023-04-15T04:57:25.779Z,984.23
2023-04-15T04:58:25.825Z,984.18
2023-04-15T04:59:25.787Z,984.24
2023-04-15T05:00:25.828Z,984.25
2023-04-15T05:01:25.904Z,984.20
2023-04-15T05:02:25.935Z,984.27
2023-04-15T05:03:25.934Z,984.24
2023-04-15T05:04:25.889Z,984.25
2023-04-15T05:05:25.883Z,984.22
2023-04-15T05:06:25.889Z,984.21
2023-04-15T05:07:25.914Z,984.19
2023-04-15T05:08:25.940Z,984.21
2023-04-15T05:09:25.935Z,984.18
2023-04-15T05:10:25.953Z,984.22
2023-04-15T05:11:25.966Z,984.26
2023-04-15T05:12:25.965Z,984.22
2023-04-15T05:13:25.970Z,984.26
2023-04-15T05:14:25.986Z,984.27
2023-04-15T05:15:26.003Z,984.21
2023-04-15T05:16:26.010Z,984.27
2023-04-15T05:17:26.070Z,984.38
2023-04-15T05:18:26.036Z,984.31
2023-04-15T05:19:26.040Z,984.37
2023-04-15T05:20:26.088Z,984.30
2023-04-15T05:21:26.157Z,984.36
2023-04-15T05:22:26.076Z,984.34
2023-04-15T05:23:26.092Z,984.30
2023-04-15T05:24:26.099Z,984.37
2023-04-15T05:25:26.133Z,984.38
2023-04-15T05:26:26.137Z,984.41
2023-04-15T05:27:26.149Z,984.41
2023-04-15T05:28:26.155Z,984.39
2023-04-15T05:29:26.176Z,984.39
2023-04-15T05:30:26.196Z,984.32
2023-04-15T05:31:26.258Z,984.29
2023-04-15T05:32:26.236Z,984.28
2023-04-15T05:33:26.219Z,984.27
2023-04-15T05:34:26.207Z,984.27
2023-04-15T05:35:26.248Z,984.25
2023-04-15T05:36:26.251Z,984.30
2023-04-15T05:37:26.265Z,984.38
2023-04-15T05:38:26.259Z,984.38
2023-04-15T05:39:26.297Z,984.40
2023-04-15T05:40:26.287Z,984.39
2023-04-15T05:41:26.339Z,984.42
2023-04-15T05:42:26.327Z,984.43
2023-04-15T05:43:26.338Z,984.39
2023-04-15T05:44:26.318Z,984.38
2023-04-15T05:45:26.371Z,984.41
2023-04-15T05:46:26.437Z,984.51
2023-04-15T05:47:26.410Z,984.39
2023-04-15T05:48:26.378Z,984.47
2023-04-15T05:49:26.391Z,984.42
2023-04-15T05:50:26.408Z,984.51
2023-04-15T05:51:26.418Z,984.43
2023-04-15T05:52:26.438Z,984.44
2023-04-15T05:53:26.450Z,984.44
2023-04-15T05:54:26.450Z,984.51
2023-04-15T05:55:26.466Z,984.52
2023-04-15T05:56:26.465Z,984.52
2023-04-15T05:57:26.498Z,984.47
2023-04-15T05:58:26.512Z,984.58
2023-04-15T05:59:26.520Z,984.51
2023-04-15T06:00:26.534Z,984.54
2023-04-15T06:01:26.529Z,984.50
2023-04-15T06:02:26.727Z,984.49
2023-04-15T06:03:26.662Z,984.51
2023-04-15T06:04:26.701Z,984.55
2023-04-15T06:05:26.584Z,984.49
2023-04-15T06:06:26.593Z,984.51
2023-04-15T06:07:26.615Z,984.54
2023-04-15T06:08:26.643Z,984.53
2023-04-15T06:09:26.623Z,984.58
2023-04-15T06:10:26.661Z,984.58
2023-04-15T06:11:26.662Z,984.60
2023-04-15T06:12:26.671Z,984.50
2023-04-15T06:13:26.684Z,984.60
2023-04-15T06:14:26.700Z,984.53
2023-04-15T06:15:26.711Z,984.64
2023-04-15T06:16:26.777Z,984.58
2023-04-15T06:17:26.818Z,984.53
2023-04-15T06:18:26.748Z,984.61
2023-04-15T06:19:26.754Z,984.62
2023-04-15T06:20:26.753Z,984.56
2023-04-15T06:21:26.776Z,984.64
2023-04-15T06:22:26.789Z,984.59
2023-04-15T06:23:28.069Z,984.64
2023-04-15T06:24:26.839Z,984.67
2023-04-15T06:25:26.873Z,984.69
2023-04-15T06:26:26.832Z,984.69
2023-04-15T06:27:26.846Z,984.70
2023-04-15T06:28:26.902Z,984.66
2023-04-15T06:29:26.886Z,984.69
2023-04-15T06:30:26.885Z,984.69
2023-04-15T06:31:26.942Z,984.78
2023-04-15T06:32:26.926Z,984.80
2023-04-15T06:33:26.905Z,984.70
2023-04-15T06:34:26.928Z,984.75
2023-04-15T06:35:26.941Z,984.71
2023-04-15T06:36:26.967Z,984.72
2023-04-15T06:37:26.962Z,984.62
2023-04-15T06:38:26.973Z,984.69
2023-04-15T06:39:26.988Z,984.71
2023-04-15T06:40:27.091Z,984.71
2023-04-15T06:41:27.012Z,984.72
2023-04-15T06:42:27.036Z,984.87
2023-04-15T06:43:27.045Z,984.79
2023-04-15T06:44:27.048Z,984.84
2023-04-15T06:45:27.087Z,984.84
2023-04-15T06:46:27.147Z,984.82
2023-04-15T06:47:27.123Z,984.89
2023-04-15T06:48:27.107Z,984.80
2023-04-15T06:49:27.120Z,984.86
2023-04-15T06:50:27.138Z,984.89
2023-04-15T06:51:27.158Z,984.79
2023-04-15T06:52:27.131Z,984.83
2023-04-15T06:53:27.168Z,984.80
2023-04-15T06:54:27.154Z,984.86
2023-04-15T06:55:27.177Z,984.89
2023-04-15T06:56:27.208Z,984.84
2023-04-15T06:57:27.261Z,984.85
2023-04-15T06:58:27.216Z,984.81
2023-04-15T06:59:27.226Z,984.79
2023-04-15T07:00:27.265Z,984.78
2023-04-15T07:01:27.245Z,984.77
2023-04-15T07:02:27.381Z,984.74
2023-04-15T07:03:27.285Z,984.71
2023-04-15T07:04:27.353Z,984.78
2023-04-15T07:05:27.299Z,984.77
2023-04-15T07:06:27.306Z,984.80
2023-04-15T07:07:27.335Z,984.71
2023-04-15T07:08:27.363Z,984.76
2023-04-15T07:09:27.374Z,984.75
2023-04-15T07:10:27.381Z,984.79
2023-04-15T07:11:27.383Z,984.71
2023-04-15T07:12:27.370Z,984.71
2023-04-15T07:13:27.420Z,984.77
2023-04-15T07:14:27.430Z,984.75
2023-04-15T07:15:27.432Z,984.74
2023-04-15T07:16:29.403Z,984.75
2023-04-15T07:17:27.514Z,984.77
2023-04-15T07:18:27.467Z,984.66
2023-04-15T07:19:27.485Z,984.69
2023-04-15T07:20:27.498Z,984.70
2023-04-15T07:21:27.493Z,984.80
2023-04-15T07:22:27.516Z,984.69
2023-04-15T07:23:27.537Z,984.76
2023-04-15T07:24:27.534Z,984.64
2023-04-15T07:25:27.551Z,984.76
2023-04-15T07:26:27.555Z,984.77
2023-04-15T07:27:27.554Z,984.83
2023-04-15T07:28:27.567Z,984.80
2023-04-15T07:29:27.609Z,984.78
2023-04-15T07:30:27.613Z,984.80
2023-04-15T07:31:27.721Z,984.89
2023-04-15T07:32:27.683Z,984.84
2023-04-15T07:33:27.611Z,984.77
2023-04-15T07:34:27.694Z,984.76
2023-04-15T07:35:27.696Z,984.73
2023-04-15T07:36:27.671Z,984.68
2023-04-15T07:37:27.689Z,984.77
2023-04-15T07:38:27.684Z,984.76
2023-04-15T07:39:27.785Z,984.77
2023-04-15T07:40:27.795Z,984.84
2023-04-15T07:41:27.764Z,984.80
2023-04-15T07:42:27.744Z,984.83
2023-04-15T07:43:27.761Z,984.75
2023-04-15T07:44:27.783Z,984.79
2023-04-15T07:45:27.785Z,984.82
2023-04-15T07:46:27.814Z,984.82
2023-04-15T07:47:27.847Z,984.91
2023-04-15T07:48:27.808Z,984.84
2023-04-15T07:49:27.842Z,984.82
2023-04-15T07:50:27.842Z,984.86
2023-04-15T07:51:27.849Z,984.90
2023-04-15T07:52:27.870Z,984.77
2023-04-15T07:53:27.882Z,984.80
2023-04-15T07:54:27.899Z,984.79
2023-04-15T07:55:28.387Z,984.75
2023-04-15T07:56:27.895Z,984.77
2023-04-15T07:57:27.923Z,984.79
2023-04-15T07:58:27.953Z,984.78
2023-04-15T07:59:27.963Z,984.80
2023-04-15T08:00:27.988Z,984.75
2023-04-15T08:01:27.978Z,984.76
2023-04-15T08:02:28.087Z,984.80
2023-04-15T08:03:28.135Z,984.73
2023-04-15T08:04:28.160Z,984.75
2023-04-15T08:05:28.050Z,984.73
2023-04-15T08:06:28.038Z,984.77
2023-04-15T08:07:28.088Z,984.76
2023-04-15T08:08:28.053Z,984.77
2023-04-15T08:09:28.050Z,984.76
2023-04-15T08:10:28.091Z,984.73
2023-04-15T08:11:28.099Z,984.79
2023-04-15T08:12:28.130Z,984.86
2023-04-15T08:13:28.132Z,984.77
2023-04-15T08:14:28.145Z,984.85
2023-04-15T08:15:28.146Z,984.80
2023-04-15T08:16:28.205Z,984.81
2023-04-15T08:17:28.188Z,984.78
2023-04-15T08:18:28.231Z,984.85
2023-04-15T08:19:48.365Z,984.68
2023-04-15T08:20:48.350Z,984.73
2023-04-15T08:21:48.360Z,984.71
2023-04-15T08:22:48.418Z,984.73
2023-04-15T08:23:48.362Z,984.77
2023-04-15T08:24:48.372Z,984.82
2023-04-15T08:25:48.360Z,984.77
2023-04-15T08:26:48.334Z,984.77
2023-04-15T08:27:48.393Z,984.80
2023-04-15T08:28:48.375Z,984.72
2023-04-15T08:29:48.373Z,984.78
2023-04-15T08:30:48.364Z,984.78
2023-04-15T08:31:48.411Z,984.72
2023-04-15T08:32:48.400Z,984.80
2023-04-15T08:33:48.355Z,984.72
2023-04-15T08:34:48.375Z,984.76
2023-04-15T08:35:48.373Z,984.80
2023-04-15T08:36:48.380Z,984.81
2023-04-15T08:37:48.384Z,984.80
2023-04-15T08:38:48.371Z,984.84
2023-04-15T08:39:48.375Z,984.84
2023-04-15T08:40:48.375Z,984.83
2023-04-15T08:41:48.453Z,984.88
2023-04-15T08:42:48.384Z,984.81
2023-04-15T08:43:48.370Z,984.82
2023-04-15T08:44:48.383Z,984.84
2023-04-15T08:45:48.365Z,984.83
2023-04-15T08:46:48.439Z,984.84
2023-04-15T08:47:48.445Z,984.86
2023-04-15T08:48:48.370Z,984.78
2023-04-15T08:49:48.406Z,984.83
2023-04-15T08:50:48.387Z,984.78
2023-04-15T08:51:48.425Z,984.84
2023-04-15T08:52:48.416Z,984.84
2023-04-15T08:53:48.386Z,984.79
2023-04-15T08:54:48.361Z,984.89
2023-04-15T08:55:48.535Z,984.83
2023-04-15T08:56:48.602Z,984.82
2023-04-15T08:57:48.566Z,984.85
2023-04-15T08:58:48.565Z,984.84
2023-04-15T08:59:48.591Z,984.80
2023-04-15T09:00:48.696Z,984.87
2023-04-15T09:01:48.652Z,984.86
2023-04-15T09:02:48.799Z,984.82
2023-04-15T09:03:48.857Z,984.82
2023-04-15T09:04:48.652Z,984.83
2023-04-15T09:05:48.664Z,984.84
2023-04-15T09:06:48.698Z,984.77
2023-04-15T09:07:48.719Z,984.78
2023-04-15T09:08:48.705Z,984.71
2023-04-15T09:09:48.746Z,984.74
2023-04-15T09:10:48.735Z,984.71
2023-04-15T09:11:48.737Z,984.75
2023-04-15T09:12:48.736Z,984.76
2023-04-15T09:13:48.750Z,984.71
2023-04-15T09:14:48.775Z,984.81
2023-04-15T09:15:48.777Z,984.78
2023-04-15T09:16:50.428Z,984.80
2023-04-15T09:17:48.837Z,984.78
2023-04-15T09:18:48.811Z,984.86
2023-04-15T09:19:48.851Z,984.83
2023-04-15T09:20:48.840Z,984.89
2023-04-15T09:21:48.834Z,984.87
2023-04-15T09:22:48.857Z,984.87
2023-04-15T09:23:48.868Z,984.88
2023-04-15T09:24:48.905Z,984.86
2023-04-15T09:25:48.893Z,984.85
2023-04-15T09:26:48.909Z,984.84
2023-04-15T09:27:48.916Z,984.90
2023-04-15T09:28:48.943Z,984.94
2023-04-15T09:29:48.951Z,984.96
2023-04-15T09:30:50.915Z,984.90
2023-04-15T09:31:48.974Z,984.94
2023-04-15T09:32:49.016Z,984.87
2023-04-15T09:33:48.994Z,984.96
2023-04-15T09:34:49.022Z,984.92
2023-04-15T09:35:49.007Z,984.98
2023-04-15T09:36:50.925Z,985.04
2023-04-15T09:37:49.062Z,984.99
2023-04-15T09:38:49.041Z,985.01
2023-04-15T09:39:49.069Z,985.05
2023-04-15T09:40:49.108Z,985.01
2023-04-15T09:41:49.082Z,985.00
2023-04-15T09:42:50.270Z,985.02
2023-04-15T09:43:49.117Z,985.04
2023-04-15T09:44:49.128Z,985.01
2023-04-15T09:45:49.242Z,985.04
2023-04-15T09:46:49.157Z,985.05
2023-04-15T09:47:49.174Z,985.08
2023-04-15T09:48:49.185Z,985.06
2023-04-15T09:49:49.232Z,985.09
2023-04-15T09:50:49.205Z,985.07
2023-04-15T09:52:03.997Z,985.11
2023-04-15T09:52:49.202Z,985.00
2023-04-15T09:53:49.205Z,985.11
2023-04-15T09:54:49.227Z,985.09
2023-04-15T09:55:49.232Z,985.06
2023-04-15T09:56:49.225Z,985.13
2023-04-15T09:57:49.211Z,985.01
2023-04-15T09:58:49.209Z,985.11
2023-04-15T09:59:49.228Z,985.06
2023-04-15T10:00:49.241Z,985.08
2023-04-15T10:01:49.375Z,985.11
2023-04-15T10:02:49.331Z,985.03
2023-04-15T10:03:49.317Z,985.07
2023-04-15T10:04:49.203Z,985.12
2023-04-15T10:05:49.225Z,985.10
2023-04-15T10:06:49.238Z,985.06
2023-04-15T10:07:49.213Z,985.15
2023-04-15T10:08:49.246Z,985.14
2023-04-15T10:09:49.230Z,985.09
2023-04-15T10:10:49.250Z,985.12
2023-04-15T10:11:49.270Z,985.18
2023-04-15T10:12:49.247Z,985.18
2023-04-15T10:13:49.248Z,985.13
2023-04-15T10:14:49.196Z,985.13
2023-04-15T10:15:49.274Z,985.08
2023-04-15T10:16:49.264Z,985.15
2023-04-15T10:17:49.328Z,985.16
2023-04-15T10:18:49.255Z,985.24
2023-04-15T10:19:49.207Z,985.15
2023-04-15T10:20:49.254Z,985.15
2023-04-15T10:21:49.256Z,985.21
2023-04-15T10:22:49.290Z,985.23
2023-04-15T10:23:49.237Z,985.14
2023-04-15T10:24:49.256Z,985.22
2023-04-15T10:25:49.252Z,985.16
2023-04-15T10:26:49.212Z,985.26
2023-04-15T10:27:49.257Z,985.27
2023-04-15T10:28:49.267Z,985.21
2023-04-15T10:29:49.257Z,985.27
2023-04-15T10:30:49.264Z,985.23
2023-04-15T10:31:49.391Z,985.25
2023-04-15T10:32:49.280Z,985.22
2023-04-15T10:33:49.276Z,985.27
2023-04-15T10:34:49.239Z,985.36
2023-04-15T10:35:49.274Z,985.28
2023-04-15T10:36:49.235Z,985.35
2023-04-15T10:37:49.283Z,985.31
2023-04-15T10:38:49.280Z,985.27
2023-04-15T10:39:49.309Z,985.32
2023-04-15T10:40:49.254Z,985.35
2023-04-15T10:41:49.265Z,985.36
2023-04-15T10:42:49.274Z,985.34
2023-04-15T10:43:49.280Z,985.44
2023-04-15T10:44:49.316Z,985.38
2023-04-15T10:45:49.284Z,985.36
2023-04-15T10:46:49.299Z,985.40
2023-04-15T10:47:49.297Z,985.41
2023-04-15T10:48:49.347Z,985.40
2023-04-15T10:49:49.305Z,985.40
2023-04-15T10:50:49.328Z,985.44
2023-04-15T10:51:49.314Z,985.40
2023-04-15T10:52:49.346Z,985.42
2023-04-15T10:53:49.420Z,985.34
2023-04-15T10:54:49.594Z,985.37
2023-04-15T10:55:49.529Z,985.43
2023-04-15T10:56:49.545Z,985.42
2023-04-15T10:57:49.595Z,985.44
2023-04-15T10:58:49.555Z,985.37
2023-04-15T10:59:49.569Z,985.51
2023-04-15T11:00:49.570Z,985.48
2023-04-15T11:01:49.710Z,985.57
2023-04-15T11:02:49.790Z,985.50
2023-04-15T11:03:49.775Z,985.51
2023-04-15T11:04:49.634Z,985.54
2023-04-15T11:05:49.696Z,985.50
2023-04-15T11:06:49.652Z,985.59
2023-04-15T11:07:49.651Z,985.52
2023-04-15T11:08:49.622Z,985.66
2023-04-15T11:09:49.634Z,985.59
2023-04-15T11:10:49.676Z,985.53
2023-04-15T11:11:49.734Z,985.57
2023-04-15T11:12:49.756Z,985.61
2023-04-15T11:13:49.775Z,985.62
2023-04-15T11:14:49.764Z,985.59
2023-04-15T11:15:49.824Z,985.67
2023-04-15T11:16:49.857Z,985.60
2023-04-15T11:17:49.933Z,985.69
2023-04-15T11:18:49.899Z,985.64
2023-04-15T11:19:49.890Z,985.66
2023-04-15T11:20:49.964Z,985.75
2023-04-15T11:21:49.939Z,985.71
2023-04-15T11:22:49.896Z,985.83
2023-04-15T11:23:49.929Z,985.79
2023-04-15T11:24:49.937Z,985.75
2023-04-15T11:25:49.930Z,985.80
2023-04-15T11:26:49.903Z,985.77
2023-04-15T11:27:49.975Z,985.82
2023-04-15T11:28:49.974Z,985.84
2023-04-15T11:29:49.965Z,985.86
2023-04-15T11:30:49.966Z,985.89
2023-04-15T11:31:50.031Z,985.83
2023-04-15T11:32:50.045Z,985.82
2023-04-15T11:33:49.968Z,985.83
2023-04-15T11:34:49.964Z,985.84
2023-04-15T11:35:49.968Z,985.87
2023-04-15T11:36:50.010Z,985.86
2023-04-15T11:37:50.008Z,985.94
2023-04-15T11:38:49.977Z,985.88
2023-04-15T11:39:50.077Z,985.97
2023-04-15T11:40:50.103Z,985.93
2023-04-15T11:41:50.121Z,985.93
2023-04-15T11:42:50.375Z,985.96
2023-04-15T11:43:50.134Z,986.08
2023-04-15T11:44:50.113Z,986.01
2023-04-15T11:45:50.152Z,986.00
2023-04-15T11:46:50.199Z,986.15
2023-04-15T11:47:50.239Z,986.14
2023-04-15T11:48:50.107Z,986.10
2023-04-15T11:49:50.183Z,986.07
2023-04-15T11:50:50.167Z,986.15
2023-04-15T11:51:50.159Z,986.08
2023-04-15T11:53:25.050Z,986.13
2023-04-15T11:53:50.154Z,986.23
2023-04-15T11:54:50.137Z,986.22
2023-04-15T11:55:50.153Z,986.32
2023-04-15T11:56:50.134Z,986.29
2023-04-15T11:57:50.177Z,986.29
2023-04-15T11:58:50.146Z,986.31
2023-04-15T11:59:50.135Z,986.29
2023-04-15T12:00:50.125Z,986.33
2023-04-15T12:01:50.162Z,986.30
2023-04-15T12:02:50.268Z,986.22
2023-04-15T12:04:01.088Z,986.33
2023-04-15T12:04:50.254Z,986.35
2023-04-15T12:05:50.153Z,986.33
2023-04-15T12:06:50.144Z,986.33
2023-04-15T12:07:50.155Z,986.34
2023-04-15T12:08:50.166Z,986.31
2023-04-15T12:09:50.123Z,986.45
2023-04-15T12:10:50.139Z,986.44
2023-04-15T12:11:50.174Z,986.44
2023-04-15T12:12:50.146Z,986.48
2023-04-15T12:13:50.161Z,986.48
2023-04-15T12:14:50.139Z,986.54
2023-04-15T12:15:50.176Z,986.58
2023-04-15T12:16:51.643Z,986.51
2023-04-15T12:17:51.585Z,986.55
2023-04-15T12:18:50.185Z,986.56
2023-04-15T12:19:50.159Z,986.53
2023-04-15T12:20:50.183Z,986.58
2023-04-15T12:21:50.167Z,986.61
2023-04-15T12:22:50.178Z,986.55
2023-04-15T12:23:50.164Z,986.71
2023-04-15T12:24:50.188Z,986.69
2023-04-15T12:25:50.173Z,986.72
2023-04-15T12:26:50.172Z,986.73
2023-04-15T12:27:50.164Z,986.74
2023-04-15T12:28:50.184Z,986.81
2023-04-15T12:29:50.178Z,986.78